sensor_id;sensor_type;location;lat;lon;timestamp;pressure;altitude;pressure_sealevel;temperature;humidity
50093;BME280;35974;47.752;10.290;2024-02-23T00:02:21;92068.09;;;3.44;100.00
50093;BME280;35974;47.752;10.290;2024-02-23T00:04:49;92068.75;;;3.33;100.00
50093;BME280;35974;47.752;10.290;2024-02-23T00:07:19;92081.13;;;3.17;100.00
50093;BME280;35974;47.752;10.290;2024-02-23T00:09:56;92065.03;;;3.02;100.00
50093;BME280;35974;47.752;10.290;2024-02-23T00:12:26;92071.41;;;3.06;100.00
50093;BME280;35974;47.752;10.290;2024-02-23T00:14:57;92082.38;;;2.88;100.00
50093;BME280;35974;47.752;10.290;2024-02-23T00:17:25;92078.38;;;3.12;100.00
50093;BME280;35974;47.752;10.290;2024-02-23T00:19:52;92067.59;;;3.15;100.00
50093;BME280;35974;47.752;10.290;2024-02-23T00:22:19;92068.03;;;3.12;100.00
50093;BME280;35974;47.752;10.290;2024-02-23T00:24:49;92085.06;;;3.26;100.00
50093;BME280;35974;47.752;10.290;2024-02-23T00:27:22;92074.38;;;3.09;100.00
50093;BME280;35974;47.752;10.290;2024-02-23T00:29:53;92123.06;;;3.19;100.00
50093;BME280;35974;47.752;10.290;2024-02-23T00:32:19;92095.84;;;3.10;100.00
50093;BME280;35974;47.752;10.290;2024-02-23T00:34:46;92063.63;;;3.19;100.00
50093;BME280;35974;47.752;10.290;2024-02-23T00:37:13;92080.63;;;3.47;100.00
50093;BME280;35974;47.752;10.290;2024-02-23T00:39:47;92091.78;;;3.41;100.00
50093;BME280;35974;47.752;10.290;2024-02-23T00:42:21;92101.75;;;3.30;100.00
50093;BME280;35974;47.752;10.290;2024-02-23T00:44:48;92078.31;;;3.25;100.00
50093;BME280;35974;47.752;10.290;2024-02-23T00:47:14;92064.00;;;3.23;100.00
50093;BME280;35974;47.752;10.290;2024-02-23T00:49:41;92083.09;;;3.15;100.00
50093;BME280;35974;47.752;10.290;2024-02-23T00:52:07;92076.31;;;3.27;100.00
50093;BME280;35974;47.752;10.290;2024-02-23T00:54:34;92088.66;;;3.25;100.00
50093;BME280;35974;47.752;10.290;2024-02-23T00:57:00;92077.75;;;3.23;100.00
50093;BME280;35974;47.752;10.290;2024-02-23T00:59:29;92083.91;;;3.22;100.00
50093;BME280;35974;47.752;10.290;2024-02-23T01:01:55;92072.34;;;3.18;100.00
50093;BME280;35974;47.752;10.290;2024-02-23T01:04:22;92089.44;;;3.33;100.00
50093;BME280;35974;47.752;10.290;2024-02-23T01:06:48;92102.94;;;3.35;100.00
50093;BME280;35974;47.752;10.290;2024-02-23T01:09:23;92081.13;;;3.17;100.00
50093;BME280;35974;47.752;10.290;2024-02-23T01:11:55;92096.41;;;3.25;100.00
50093;BME280;35974;47.752;10.290;2024-02-23T01:14:32;92085.06;;;3.26;100.00
50093;BME280;35974;47.752;10.290;2024-02-23T01:16:59;92055.72;;;3.07;100.00
50093;BME280;35974;47.752;10.290;2024-02-23T01:19:26;92070.41;;;3.14;100.00
50093;BME280;35974;47.752;10.290;2024-02-23T01:21:52;92100.56;;;3.33;100.00
50093;BME280;35974;47.752;10.290;2024-02-23T01:24:29;92054.69;;;3.08;100.00
50093;BME280;35974;47.752;10.290;2024-02-23T01:26:56;92065.22;;;3.20;100.00
50093;BME280;35974;47.752;10.290;2024-02-23T01:29:23;92079.09;;;3.26;100.00
50093;BME280;35974;47.752;10.290;2024-02-23T01:31:52;92102.13;;;3.41;100.00
50093;BME280;35974;47.752;10.290;2024-02-23T01:34:25;92062.84;;;3.12;100.00
50093;BME280;35974;47.752;10.290;2024-02-23T01:36:53;92086.44;;;3.36;100.00
50093;BME280;35974;47.752;10.290;2024-02-23T01:39:31;92079.13;;;3.19;100.00
50093;BME280;35974;47.752;10.290;2024-02-23T01:41:58;92084.25;;;3.33;100.00
50093;BME280;35974;47.752;10.290;2024-02-23T01:44:26;92100.16;;;3.43;100.00
50093;BME280;35974;47.752;10.290;2024-02-23T01:46:53;92085.47;;;3.30;100.00
50093;BME280;35974;47.752;10.290;2024-02-23T01:49:21;92093.97;;;3.44;100.00
50093;BME280;35974;47.752;10.290;2024-02-23T01:52:02;92101.81;;;3.76;100.00
50093;BME280;35974;47.752;10.290;2024-02-23T01:54:32;92082.22;;;3.48;100.00
50093;BME280;35974;47.752;10.290;2024-02-23T01:57:03;92086.19;;;3.51;100.00
50093;BME280;35974;47.752;10.290;2024-02-23T01:59:51;92112.00;;;3.71;100.00
50093;BME280;35974;47.752;10.290;2024-02-23T02:02:23;92064.75;;;3.37;100.00
50093;BME280;35974;47.752;10.290;2024-02-23T02:04:50;92093.94;;;3.51;100.00
50093;BME280;35974;47.752;10.290;2024-02-23T02:07:23;92099.72;;;3.46;100.00
50093;BME280;35974;47.752;10.290;2024-02-23T02:09:51;92115.16;;;3.73;100.00
50093;BME280;35974;47.752;10.290;2024-02-23T02:12:28;92128.25;;;3.78;100.00
50093;BME280;35974;47.752;10.290;2024-02-23T02:14:55;92117.41;;;3.62;100.00
50093;BME280;35974;47.752;10.290;2024-02-23T02:17:22;92060.06;;;3.20;100.00
50093;BME280;35974;47.752;10.290;2024-02-23T02:20:04;92127.16;;;3.54;100.00
50093;BME280;35974;47.752;10.290;2024-02-23T02:22:32;92142.56;;;3.87;100.00
50093;BME280;35974;47.752;10.290;2024-02-23T02:25:05;92101.69;;;3.51;100.00
50093;BME280;35974;47.752;10.290;2024-02-23T02:27:32;92134.25;;;3.72;100.00
50093;BME280;35974;47.752;10.290;2024-02-23T02:30:13;92139.66;;;3.63;100.00
50093;BME280;35974;47.752;10.290;2024-02-23T02:32:40;92112.00;;;3.57;100.00
50093;BME280;35974;47.752;10.290;2024-02-23T02:35:09;92132.47;;;3.65;100.00
50093;BME280;35974;47.752;10.290;2024-02-23T02:37:36;92116.78;;;3.60;100.00
50093;BME280;35974;47.752;10.290;2024-02-23T02:40:03;92115.22;;;3.59;100.00
50093;BME280;35974;47.752;10.290;2024-02-23T02:42:30;92068.66;;;3.59;100.00
50093;BME280;35974;47.752;10.290;2024-02-23T02:44:56;92117.59;;;3.61;100.00
50093;BME280;35974;47.752;10.290;2024-02-23T02:47:30;92134.66;;;3.69;100.00
50093;BME280;35974;47.752;10.290;2024-02-23T02:49:57;92124.50;;;3.67;100.00
50093;BME280;35974;47.752;10.290;2024-02-23T02:52:24;92122.38;;;3.51;100.00
50093;BME280;35974;47.752;10.290;2024-02-23T02:54:51;92125.16;;;3.49;100.00
50093;BME280;35974;47.752;10.290;2024-02-23T02:57:18;92129.31;;;3.63;100.00
50093;BME280;35974;47.752;10.290;2024-02-23T02:59:45;92139.91;;;3.42;100.00
50093;BME280;35974;47.752;10.290;2024-02-23T03:02:12;92159.41;;;3.38;100.00
50093;BME280;35974;47.752;10.290;2024-02-23T03:04:47;92159.00;;;3.54;100.00
50093;BME280;35974;47.752;10.290;2024-02-23T03:07:15;92136.81;;;3.00;100.00
50093;BME280;35974;47.752;10.290;2024-02-23T03:09:41;92158.28;;;2.80;100.00
50093;BME280;35974;47.752;10.290;2024-02-23T03:12:08;92161.44;;;2.62;100.00
50093;BME280;35974;47.752;10.290;2024-02-23T03:14:35;92140.34;;;2.32;100.00
50093;BME280;35974;47.752;10.290;2024-02-23T03:17:04;92137.56;;;2.27;100.00
50093;BME280;35974;47.752;10.290;2024-02-23T03:19:31;92134.41;;;2.51;100.00
50093;BME280;35974;47.752;10.290;2024-02-23T03:21:59;92130.47;;;2.55;100.00
50093;BME280;35974;47.752;10.290;2024-02-23T03:24:26;92145.53;;;2.45;100.00
50093;BME280;35974;47.752;10.290;2024-02-23T03:26:52;92137.56;;;2.27;100.00
50093;BME280;35974;47.752;10.290;2024-02-23T03:29:19;92156.22;;;2.35;100.00
50093;BME280;35974;47.752;10.290;2024-02-23T03:31:48;92152.25;;;2.26;100.00
50093;BME280;35974;47.752;10.290;2024-02-23T03:34:15;92154.19;;;2.11;100.00
50093;BME280;35974;47.752;10.290;2024-02-23T03:36:41;92125.81;;;2.17;100.00
50093;BME280;35974;47.752;10.290;2024-02-23T03:39:08;92163.00;;;2.30;100.00
50093;BME280;35974;47.752;10.290;2024-02-23T03:41:34;92144.44;;;1.99;100.00
50093;BME280;35974;47.752;10.290;2024-02-23T03:44:01;92150.63;;;2.05;100.00
50093;BME280;35974;47.752;10.290;2024-02-23T03:46:28;92145.19;;;1.87;100.00
50093;BME280;35974;47.752;10.290;2024-02-23T03:48:55;92151.00;;;2.02;100.00
50093;BME280;35974;47.752;10.290;2024-02-23T03:51:23;92152.63;;;2.10;100.00
50093;BME280;35974;47.752;10.290;2024-02-23T03:53:50;92167.75;;;2.19;100.00
50093;BME280;35974;47.752;10.290;2024-02-23T03:56:16;92160.94;;;2.05;100.00
50093;BME280;35974;47.752;10.290;2024-02-23T03:58:43;92185.16;;;2.04;100.00
50093;BME280;35974;47.752;10.290;2024-02-23T04:01:09;92172.78;;;1.93;100.00
50093;BME280;35974;47.752;10.290;2024-02-23T04:03:47;92172.84;;;2.06;100.00
50093;BME280;35974;47.752;10.290;2024-02-23T04:06:14;92178.00;;;2.06;100.00
50093;BME280;35974;47.752;10.290;2024-02-23T04:08:40;92130.22;;;1.62;100.00
50093;BME280;35974;47.752;10.290;2024-02-23T04:11:07;92158.09;;;1.87;100.00
50093;BME280;35974;47.752;10.290;2024-02-23T04:13:44;92150.13;;;1.81;100.00
50093;BME280;35974;47.752;10.290;2024-02-23T04:16:10;92135.47;;;1.82;100.00
50093;BME280;35974;47.752;10.290;2024-02-23T04:18:37;92154.94;;;1.91;100.00
50093;BME280;35974;47.752;10.290;2024-02-23T04:21:03;92151.56;;;1.91;100.00
50093;BME280;35974;47.752;10.290;2024-02-23T04:23:30;92139.63;;;1.76;100.00
50093;BME280;35974;47.752;10.290;2024-02-23T04:25:57;92135.44;;;1.75;100.00
50093;BME280;35974;47.752;10.290;2024-02-23T04:28:23;92128.69;;;1.74;100.00
50093;BME280;35974;47.752;10.290;2024-02-23T04:30:52;92164.13;;;2.07;100.00
50093;BME280;35974;47.752;10.290;2024-02-23T04:33:20;92135.13;;;1.92;100.00
50093;BME280;35974;47.752;10.290;2024-02-23T04:35:47;92131.09;;;1.82;100.00
50093;BME280;35974;47.752;10.290;2024-02-23T04:38:14;92132.09;;;1.81;100.00
50093;BME280;35974;47.752;10.290;2024-02-23T04:40:41;92124.31;;;1.68;100.00
50093;BME280;35974;47.752;10.290;2024-02-23T04:43:09;92148.59;;;1.87;100.00
50093;BME280;35974;47.752;10.290;2024-02-23T04:45:35;92106.84;;;1.70;100.00
50093;BME280;35974;47.752;10.290;2024-02-23T04:48:02;92136.69;;;1.93;100.00
50093;BME280;35974;47.752;10.290;2024-02-23T04:51:03;92159.75;;;2.14;100.00
50093;BME280;35974;47.752;10.290;2024-02-23T04:53:30;92108.09;;;1.88;100.00
50093;BME280;35974;47.752;10.290;2024-02-23T04:55:56;92130.75;;;1.99;100.00
50093;BME280;35974;47.752;10.290;2024-02-23T04:58:23;92105.72;;;1.79;100.00
50093;BME280;35974;47.752;10.290;2024-02-23T05:00:49;92129.53;;;1.88;100.00
50093;BME280;35974;47.752;10.290;2024-02-23T05:03:16;92140.88;;;1.94;100.00
50093;BME280;35974;47.752;10.290;2024-02-23T05:05:42;92126.38;;;1.93;100.00
50093;BME280;35974;47.752;10.290;2024-02-23T05:08:09;92114.06;;;1.95;100.00
50093;BME280;35974;47.752;10.290;2024-02-23T05:10:36;92126.00;;;2.09;100.00
50093;BME280;35974;47.752;10.290;2024-02-23T05:13:04;92165.75;;;2.22;100.00
50093;BME280;35974;47.752;10.290;2024-02-23T05:15:31;92125.97;;;1.96;100.00
50093;BME280;35974;47.752;10.290;2024-02-23T05:17:59;92160.97;;;2.18;100.00
50093;BME280;35974;47.752;10.290;2024-02-23T05:20:26;92123.22;;;2.04;100.00
50093;BME280;35974;47.752;10.290;2024-02-23T05:22:53;92129.22;;;2.11;100.00
50093;BME280;35974;47.752;10.290;2024-02-23T05:25:19;92155.44;;;2.22;100.00
50093;BME280;35974;47.752;10.290;2024-02-23T05:27:46;92138.13;;;2.02;100.00
50093;BME280;35974;47.752;10.290;2024-02-23T05:30:13;92127.03;;;2.08;100.00
50093;BME280;35974;47.752;10.290;2024-02-23T05:32:40;92120.09;;;2.29;100.00
50093;BME280;35974;47.752;10.290;2024-02-23T05:35:09;92131.63;;;2.33;100.00
50093;BME280;35974;47.752;10.290;2024-02-23T05:37:36;92129.97;;;1.92;100.00
50093;BME280;35974;47.752;10.290;2024-02-23T05:40:04;92124.38;;;1.95;100.00
50093;BME280;35974;47.752;10.290;2024-02-23T05:42:33;92122.44;;;1.97;100.00
50093;BME280;35974;47.752;10.290;2024-02-23T05:45:06;92124.84;;;2.18;100.00
50093;BME280;35974;47.752;10.290;2024-02-23T05:47:40;92131.59;;;2.19;100.00
50093;BME280;35974;47.752;10.290;2024-02-23T05:50:13;92141.50;;;2.16;100.00
50093;BME280;35974;47.752;10.290;2024-02-23T05:52:40;92119.66;;;2.05;100.00
50093;BME280;35974;47.752;10.290;2024-02-23T05:55:07;92123.63;;;2.14;100.00
50093;BME280;35974;47.752;10.290;2024-02-23T05:57:34;92104.97;;;1.99;100.00
50093;BME280;35974;47.752;10.290;2024-02-23T06:00:01;92155.25;;;2.30;100.00
50093;BME280;35974;47.752;10.290;2024-02-23T06:02:27;92128.78;;;2.14;100.00
50093;BME280;35974;47.752;10.290;2024-02-23T06:04:54;92154.66;;;2.41;100.00
50093;BME280;35974;47.752;10.290;2024-02-23T06:07:21;92142.75;;;2.40;100.00
50093;BME280;35974;47.752;10.290;2024-02-23T06:09:53;92119.31;;;2.35;100.00
50093;BME280;35974;47.752;10.290;2024-02-23T06:12:20;92091.09;;;2.07;100.00
50093;BME280;35974;47.752;10.290;2024-02-23T06:14:46;92128.47;;;2.51;100.00
50093;BME280;35974;47.752;10.290;2024-02-23T06:17:13;92145.38;;;2.67;100.00
50093;BME280;35974;47.752;10.290;2024-02-23T06:19:40;92127.06;;;2.48;100.00
50093;BME280;35974;47.752;10.290;2024-02-23T06:22:18;92120.91;;;2.49;100.00
50093;BME280;35974;47.752;10.290;2024-02-23T06:24:47;92137.59;;;2.53;100.00
50093;BME280;35974;47.752;10.290;2024-02-23T06:27:14;92149.13;;;2.58;100.00
50093;BME280;35974;47.752;10.290;2024-02-23T06:29:40;92144.34;;;2.54;100.00
50093;BME280;35974;47.752;10.290;2024-02-23T06:32:07;92129.06;;;2.46;100.00
50093;BME280;35974;47.752;10.290;2024-02-23T06:34:34;92145.72;;;2.44;100.00
50093;BME280;35974;47.752;10.290;2024-02-23T06:37:00;92132.78;;;2.24;100.00
50093;BME280;35974;47.752;10.290;2024-02-23T06:39:28;92159.00;;;2.27;100.00
50093;BME280;35974;47.752;10.290;2024-02-23T06:41:54;92153.44;;;2.24;100.00
50093;BME280;35974;47.752;10.290;2024-02-23T06:44:21;92171.72;;;2.35;100.00
50093;BME280;35974;47.752;10.290;2024-02-23T06:46:54;92164.59;;;2.31;100.00
50093;BME280;35974;47.752;10.290;2024-02-23T06:49:20;92166.34;;;2.24;100.00
50093;BME280;35974;47.752;10.290;2024-02-23T06:51:47;92142.06;;;2.05;100.00
50093;BME280;35974;47.752;10.290;2024-02-23T06:54:18;92138.34;;;2.14;100.00
50093;BME280;35974;47.752;10.290;2024-02-23T06:56:45;92133.75;;;2.09;100.00
50093;BME280;35974;47.752;10.290;2024-02-23T06:59:12;92148.25;;;2.10;100.00
50093;BME280;35974;47.752;10.290;2024-02-23T07:01:51;92168.53;;;2.27;100.00
50093;BME280;35974;47.752;10.290;2024-02-23T07:04:18;92128.38;;;1.97;100.00
50093;BME280;35974;47.752;10.290;2024-02-23T07:06:45;92171.28;;;2.18;100.00
50093;BME280;35974;47.752;10.290;2024-02-23T07:09:12;92128.78;;;2.08;100.00
50093;BME280;35974;47.752;10.290;2024-02-23T07:11:39;92133.19;;;2.20;100.00
50093;BME280;35974;47.752;10.290;2024-02-23T07:14:08;92128.84;;;2.28;100.00
50093;BME280;35974;47.752;10.290;2024-02-23T07:16:38;92136.59;;;2.28;100.00
50093;BME280;35974;47.752;10.290;2024-02-23T07:19:10;92130.41;;;2.29;100.00
50093;BME280;35974;47.752;10.290;2024-02-23T07:21:39;92124.06;;;2.25;100.00
50093;BME280;35974;47.752;10.290;2024-02-23T07:24:09;92159.44;;;2.44;100.00
50093;BME280;35974;47.752;10.290;2024-02-23T07:26:35;92132.00;;;2.30;100.00
50093;BME280;35974;47.752;10.290;2024-02-23T07:29:02;92145.13;;;2.35;100.00
50093;BME280;35974;47.752;10.290;2024-02-23T07:31:28;92095.88;;;2.16;100.00
50093;BME280;35974;47.752;10.290;2024-02-23T07:34:21;92147.16;;;2.73;100.00
50093;BME280;35974;47.752;10.290;2024-02-23T07:36:54;92093.91;;;2.59;100.00
50093;BME280;35974;47.752;10.290;2024-02-23T07:39:22;92081.97;;;2.71;100.00
50093;BME280;35974;47.752;10.290;2024-02-23T07:41:49;92089.91;;;2.76;100.00
50093;BME280;35974;47.752;10.290;2024-02-23T07:44:16;92119.94;;;2.50;100.00
50093;BME280;35974;47.752;10.290;2024-02-23T07:46:47;92155.50;;;2.75;100.00
50093;BME280;35974;47.752;10.290;2024-02-23T07:49:14;92131.63;;;2.60;100.00
50093;BME280;35974;47.752;10.290;2024-02-23T07:51:43;92115.34;;;2.39;100.00
50093;BME280;35974;47.752;10.290;2024-02-23T07:54:10;92143.56;;;2.47;100.00
50093;BME280;35974;47.752;10.290;2024-02-23T07:56:36;92137.19;;;2.43;100.00
50093;BME280;35974;47.752;10.290;2024-02-23T07:59:03;92169.97;;;2.63;100.00
50093;BME280;35974;47.752;10.290;2024-02-23T08:01:30;92154.28;;;2.58;100.00
50093;BME280;35974;47.752;10.290;2024-02-23T08:03:57;92135.56;;;2.29;100.00
50093;BME280;35974;47.752;10.290;2024-02-23T08:06:23;92084.31;;;1.86;100.00
50093;BME280;35974;47.752;10.290;2024-02-23T08:08:50;92128.78;;;2.14;100.00
50093;BME280;35974;47.752;10.290;2024-02-23T08:11:17;92150.47;;;2.33;100.00
50093;BME280;35974;47.752;10.290;2024-02-23T08:13:43;92178.69;;;2.42;100.00
50093;BME280;35974;47.752;10.290;2024-02-23T08:16:19;92180.88;;;2.51;100.00
50093;BME280;35974;47.752;10.290;2024-02-23T08:18:53;92174.16;;;2.64;100.00
50093;BME280;35974;47.752;10.290;2024-02-23T08:21:20;92171.00;;;2.62;100.00
50093;BME280;35974;47.752;10.290;2024-02-23T08:23:47;92189.66;;;2.77;100.00
50093;BME280;35974;47.752;10.290;2024-02-23T08:26:23;92165.19;;;2.53;100.00
50093;BME280;35974;47.752;10.290;2024-02-23T08:29:00;92165.41;;;2.58;100.00
50093;BME280;35974;47.752;10.290;2024-02-23T08:31:29;92112.56;;;2.34;100.00
50093;BME280;35974;47.752;10.290;2024-02-23T08:34:14;92156.66;;;2.52;100.00
50093;BME280;35974;47.752;10.290;2024-02-23T08:36:52;92192.06;;;2.72;100.00
50093;BME280;35974;47.752;10.290;2024-02-23T08:39:24;92166.59;;;2.55;100.00
50093;BME280;35974;47.752;10.290;2024-02-23T08:41:52;92188.50;;;2.73;100.00
50093;BME280;35974;47.752;10.290;2024-02-23T08:44:25;92188.06;;;2.56;100.00
50093;BME280;35974;47.752;10.290;2024-02-23T08:46:51;92198.97;;;2.51;100.00
50093;BME280;35974;47.752;10.290;2024-02-23T08:49:19;92175.50;;;2.33;100.00
50093;BME280;35974;47.752;10.290;2024-02-23T08:51:54;92188.25;;;2.54;100.00
50093;BME280;35974;47.752;10.290;2024-02-23T08:54:24;92156.03;;;2.37;100.00
50093;BME280;35974;47.752;10.290;2024-02-23T08:57:04;92147.91;;;2.40;100.00
50093;BME280;35974;47.752;10.290;2024-02-23T08:59:31;92167.78;;;2.46;100.00
50093;BME280;35974;47.752;10.290;2024-02-23T09:02:03;92145.50;;;2.32;100.00
50093;BME280;35974;47.752;10.290;2024-02-23T09:04:30;92138.59;;;2.39;100.00
50093;BME280;35974;47.752;10.290;2024-02-23T09:07:03;92151.06;;;2.35;100.00
50093;BME280;35974;47.752;10.290;2024-02-23T09:09:39;92149.09;;;2.31;100.00
50093;BME280;35974;47.752;10.290;2024-02-23T09:12:06;92181.25;;;2.35;100.00
50093;BME280;35974;47.752;10.290;2024-02-23T09:14:38;92177.69;;;2.36;100.00
50093;BME280;35974;47.752;10.290;2024-02-23T09:17:18;92169.00;;;2.50;100.00
50093;BME280;35974;47.752;10.290;2024-02-23T09:19:48;92169.19;;;2.49;100.00
50093;BME280;35974;47.752;10.290;2024-02-23T09:22:14;92164.63;;;2.64;100.00
50093;BME280;35974;47.752;10.290;2024-02-23T09:24:43;92170.59;;;2.78;100.00
50093;BME280;35974;47.752;10.290;2024-02-23T09:27:23;92195.25;;;3.01;100.00
50093;BME280;35974;47.752;10.290;2024-02-23T09:30:03;92176.94;;;2.82;100.00
50093;BME280;35974;47.752;10.290;2024-02-23T09:32:34;92189.66;;;2.90;100.00
50093;BME280;35974;47.752;10.290;2024-02-23T09:35:04;92211.16;;;2.91;100.00
50093;BME280;35974;47.752;10.290;2024-02-23T09:37:33;92200.00;;;2.90;100.00
50093;BME280;35974;47.752;10.290;2024-02-23T09:40:07;92194.44;;;2.93;100.00
50093;BME280;35974;47.752;10.290;2024-02-23T09:42:36;92193.66;;;3.33;100.00
50093;BME280;35974;47.752;10.290;2024-02-23T09:45:26;92207.53;;;3.52;100.00
50093;BME280;35974;47.752;10.290;2024-02-23T09:47:56;92207.91;;;3.62;100.00
50093;BME280;35974;47.752;10.290;2024-02-23T09:50:41;92195.59;;;3.51;100.00
50093;BME280;35974;47.752;10.290;2024-02-23T09:53:11;92184.44;;;3.51;100.00
50093;BME280;35974;47.752;10.290;2024-02-23T09:55:41;92194.78;;;3.51;100.00
50093;BME280;35974;47.752;10.290;2024-02-23T09:58:13;92186.66;;;3.47;100.00
50093;BME280;35974;47.752;10.290;2024-02-23T10:00:46;92190.84;;;3.35;100.00
50093;BME280;35974;47.752;10.290;2024-02-23T10:03:46;92209.53;;;3.37;100.00
50093;BME280;35974;47.752;10.290;2024-02-23T10:06:13;92177.31;;;3.33;100.00
50093;BME280;35974;47.752;10.290;2024-02-23T10:08:42;92172.75;;;3.28;100.00
50093;BME280;35974;47.752;10.290;2024-02-23T10:11:20;92183.72;;;3.23;100.00
50093;BME280;35974;47.752;10.290;2024-02-23T10:13:49;92199.19;;;3.50;100.00
50093;BME280;35974;47.752;10.290;2024-02-23T10:16:22;92180.69;;;3.26;100.00
50093;BME280;35974;47.752;10.290;2024-02-23T10:18:57;92188.06;;;3.43;100.00
50093;BME280;35974;47.752;10.290;2024-02-23T10:21:27;92170.94;;;3.42;100.00
50093;BME280;35974;47.752;10.290;2024-02-23T10:23:55;92160.63;;;3.15;100.00
50093;BME280;35974;47.752;10.290;2024-02-23T10:26:26;92171.41;;;3.12;100.00
50093;BME280;35974;47.752;10.290;2024-02-23T10:28:55;92165.41;;;3.05;100.00
50093;BME280;35974;47.752;10.290;2024-02-23T10:31:24;92178.53;;;2.70;100.00
50093;BME280;35974;47.752;10.290;2024-02-23T10:33:51;92187.66;;;2.52;100.00
50093;BME280;35974;47.752;10.290;2024-02-23T10:36:19;92176.91;;;2.42;100.00
50093;BME280;35974;47.752;10.290;2024-02-23T10:38:56;92185.25;;;2.44;100.00
50093;BME280;35974;47.752;10.290;2024-02-23T10:41:23;92177.91;;;2.41;100.00
50093;BME280;35974;47.752;10.290;2024-02-23T10:43:55;92185.09;;;2.66;100.00
50093;BME280;35974;47.752;10.290;2024-02-23T10:46:36;92186.28;;;3.03;100.00
50093;BME280;35974;47.752;10.290;2024-02-23T10:49:14;92183.72;;;2.83;100.00
50093;BME280;35974;47.752;10.290;2024-02-23T10:51:41;92179.34;;;2.84;100.00
50093;BME280;35974;47.752;10.290;2024-02-23T10:54:10;92181.31;;;2.75;100.00
50093;BME280;35974;47.752;10.290;2024-02-23T10:56:37;92177.53;;;2.64;100.00
50093;BME280;35974;47.752;10.290;2024-02-23T10:59:12;92175.75;;;2.65;100.00
50093;BME280;35974;47.752;10.290;2024-02-23T11:01:57;92218.69;;;2.92;100.00
50093;BME280;35974;47.752;10.290;2024-02-23T11:04:26;92212.53;;;2.87;100.00
50093;BME280;35974;47.752;10.290;2024-02-23T11:07:13;92190.44;;;2.71;100.00
50093;BME280;35974;47.752;10.290;2024-02-23T11:09:40;92212.31;;;2.82;100.00
50093;BME280;35974;47.752;10.290;2024-02-23T11:12:08;92211.94;;;2.71;100.00
50093;BME280;35974;47.752;10.290;2024-02-23T11:14:44;92208.31;;;2.66;100.00
50093;BME280;35974;47.752;10.290;2024-02-23T11:17:18;92176.94;;;2.49;100.00
50093;BME280;35974;47.752;10.290;2024-02-23T11:19:46;92205.34;;;2.62;100.00
50093;BME280;35974;47.752;10.290;2024-02-23T11:22:15;92187.66;;;2.52;100.00
50093;BME280;35974;47.752;10.290;2024-02-23T11:24:51;92176.13;;;2.48;100.00
50093;BME280;35974;47.752;10.290;2024-02-23T11:27:24;92207.53;;;2.72;100.00
50093;BME280;35974;47.752;10.290;2024-02-23T11:30:09;92194.81;;;2.70;100.00
50093;BME280;35974;47.752;10.290;2024-02-23T11:32:38;92204.38;;;2.77;100.00
50093;BME280;35974;47.752;10.290;2024-02-23T11:35:16;92186.88;;;2.72;100.00
50093;BME280;35974;47.752;10.290;2024-02-23T11:37:47;92187.47;;;2.87;100.00
50093;BME280;35974;47.752;10.290;2024-02-23T11:40:15;92188.50;;;2.86;100.00
50093;BME280;35974;47.752;10.290;2024-02-23T11:42:43;92193.66;;;2.73;100.00
50093;BME280;35974;47.752;10.290;2024-02-23T11:45:10;92185.47;;;2.63;100.00
50093;BME280;35974;47.752;10.290;2024-02-23T11:47:37;92188.44;;;2.60;100.00
50093;BME280;35974;47.752;10.290;2024-02-23T11:50:14;92176.53;;;2.59;100.00
50093;BME280;35974;47.752;10.290;2024-02-23T11:52:47;92186.06;;;2.58;100.00
50093;BME280;35974;47.752;10.290;2024-02-23T11:55:18;92179.31;;;2.50;100.00
50093;BME280;35974;47.752;10.290;2024-02-23T11:57:49;92193.81;;;2.65;100.00
50093;BME280;35974;47.752;10.290;2024-02-23T12:00:26;92161.44;;;2.42;100.00
50093;BME280;35974;47.752;10.290;2024-02-23T12:02:56;92144.16;;;2.36;100.00
50093;BME280;35974;47.752;10.290;2024-02-23T12:05:23;92156.88;;;2.51;100.00
50093;BME280;35974;47.752;10.290;2024-02-23T12:07:51;92164.22;;;2.61;100.00
50093;BME280;35974;47.752;10.290;2024-02-23T12:10:22;92177.34;;;2.66;100.00
50093;BME280;35974;47.752;10.290;2024-02-23T12:12:49;92169.78;;;2.58;100.00
50093;BME280;35974;47.752;10.290;2024-02-23T12:15:22;92168.59;;;2.67;100.00
50093;BME280;35974;47.752;10.290;2024-02-23T12:17:49;92143.16;;;2.50;100.00
50093;BME280;35974;47.752;10.290;2024-02-23T12:20:18;92159.84;;;2.68;100.00
50093;BME280;35974;47.752;10.290;2024-02-23T12:22:50;92148.34;;;2.50;100.00
50093;BME280;35974;47.752;10.290;2024-02-23T12:25:19;92171.78;;;2.55;100.00
50093;BME280;35974;47.752;10.290;2024-02-23T12:28:04;92170.19;;;2.54;100.00
50093;BME280;35974;47.752;10.290;2024-02-23T12:30:32;92153.06;;;2.53;100.00
50093;BME280;35974;47.752;10.290;2024-02-23T12:33:09;92148.34;;;2.50;100.00
50093;BME280;35974;47.752;10.290;2024-02-23T12:35:39;92145.94;;;2.55;100.00
50093;BME280;35974;47.752;10.290;2024-02-23T12:38:07;92141.56;;;2.63;100.00
50093;BME280;35974;47.752;10.290;2024-02-23T12:40:35;92131.44;;;2.68;100.00
50093;BME280;35974;47.752;10.290;2024-02-23T12:43:01;92154.72;;;2.81;100.00
50093;BME280;35974;47.752;10.290;2024-02-23T12:45:34;92149.13;;;2.84;100.00
50093;BME280;35974;47.752;10.290;2024-02-23T12:48:05;92152.31;;;2.86;100.00
50093;BME280;35974;47.752;10.290;2024-02-23T12:50:32;92156.91;;;2.98;100.00
50093;BME280;35974;47.752;10.290;2024-02-23T12:52:58;92143.97;;;2.84;100.00
50093;BME280;35974;47.752;10.290;2024-02-23T12:55:27;92145.56;;;2.79;100.00
50093;BME280;35974;47.752;10.290;2024-02-23T12:58:01;92168.59;;;2.93;100.00
50093;BME280;35974;47.752;10.290;2024-02-23T13:00:27;92138.81;;;2.98;100.00
50093;BME280;35974;47.752;10.290;2024-02-23T13:03:19;92152.25;;;3.40;100.00
50093;BME280;35974;47.752;10.290;2024-02-23T13:05:56;92130.84;;;3.06;100.00